Terminal Aerodrome Forecast
Issued by NWS Austin/San Antonio, TX

Home | Current Version | Previous Version | Text Only | Print | Product List | Glossary On
Versions: 1 2 3 4 5 6 7 8 9 10 11 12 13 14 15 16 17 18 19 20 21 22
039
FTUS44 KEWX 170535
TAFDRT
TAF
KDRT 170535Z 1706/1806 VRB03KT P6SM OVC060
     FM171100 35006KT P6SM OVC030
     FM171500 33006KT P6SM VCSH OVC015
     FM171800 33007KT 5SM -DZ OVC007
     FM180200 32005KT P6SM OVC007=

USA.gov is the U.S. government's official web portal to all federal, state and local government web resources and services.